createdAt,value
2022-10-23T00:00:26.437Z,28.80
2022-10-23T00:01:26.345Z,28.50
2022-10-23T00:02:26.403Z,27.70
2022-10-23T00:03:26.332Z,27.40
2022-10-23T00:04:26.414Z,27.90
2022-10-23T00:05:26.297Z,27.90
2022-10-23T00:06:26.289Z,27.80
2022-10-23T00:07:26.317Z,24.90
2022-10-23T00:08:26.260Z,24.50
2022-10-23T00:09:26.232Z,26.40
2022-10-23T00:10:26.346Z,26.60
2022-10-23T00:11:26.220Z,28.60
2022-10-23T00:12:26.189Z,28.00
2022-10-23T00:13:26.197Z,28.30
2022-10-23T00:14:26.186Z,28.70
2022-10-23T00:15:26.147Z,27.70
2022-10-23T00:16:26.254Z,27.40
2022-10-23T00:17:26.140Z,27.10
2022-10-23T00:18:26.121Z,28.30
2022-10-23T00:19:26.094Z,26.30
2022-10-23T00:20:26.093Z,27.00
2022-10-23T00:21:26.059Z,27.70
2022-10-23T00:22:26.189Z,29.30
2022-10-23T00:23:26.043Z,28.80
2022-10-23T00:24:26.028Z,26.80
2022-10-23T00:25:26.022Z,28.40
2022-10-23T00:26:26.012Z,24.40
2022-10-23T00:27:25.984Z,25.50
2022-10-23T00:28:26.013Z,25.20
2022-10-23T00:29:25.957Z,25.50
2022-10-23T00:30:25.949Z,27.40
2022-10-23T00:31:25.937Z,28.80
2022-10-23T00:32:25.979Z,27.40
2022-10-23T00:33:25.901Z,27.40
2022-10-23T00:34:26.013Z,29.20
2022-10-23T00:35:25.889Z,27.50
2022-10-23T00:36:25.863Z,29.10
2022-10-23T00:37:25.866Z,29.80
2022-10-23T00:38:25.856Z,29.50
2022-10-23T00:39:25.838Z,27.80
2022-10-23T00:40:25.869Z,27.00
2022-10-23T00:41:25.787Z,27.00
2022-10-23T00:42:25.791Z,27.50
2022-10-23T00:43:25.770Z,26.20
2022-10-23T00:44:25.764Z,27.90
2022-10-23T00:45:25.751Z,25.30
2022-10-23T00:46:25.789Z,27.40
2022-10-23T00:47:25.720Z,26.20
2022-10-23T00:48:25.723Z,26.40
2022-10-23T00:49:25.702Z,27.50
2022-10-23T00:50:25.668Z,27.10
2022-10-23T00:51:25.662Z,25.30
2022-10-23T00:52:25.762Z,27.80
2022-10-23T00:53:25.639Z,28.40
2022-10-23T00:54:25.799Z,26.80
2022-10-23T00:55:25.599Z,27.20
2022-10-23T00:56:25.612Z,29.30
2022-10-23T00:57:25.599Z,28.60
2022-10-23T00:58:25.668Z,27.20
2022-10-23T00:59:25.562Z,28.40
2022-10-23T01:00:25.530Z,28.40
2022-10-23T01:01:25.595Z,28.80
2022-10-23T01:02:25.562Z,27.20
2022-10-23T01:03:25.483Z,26.90
2022-10-23T01:04:25.582Z,28.30
2022-10-23T01:05:25.478Z,27.70
2022-10-23T01:06:25.484Z,26.90
2022-10-23T01:07:25.432Z,28.80
2022-10-23T01:08:25.434Z,24.50
2022-10-23T01:09:25.403Z,28.30
2022-10-23T01:10:25.502Z,28.30
2022-10-23T01:11:25.394Z,28.50
2022-10-23T01:12:25.363Z,29.20
2022-10-23T01:13:25.367Z,25.80
2022-10-23T01:14:25.348Z,30.70
2022-10-23T01:15:25.324Z,28.40
2022-10-23T01:16:25.448Z,26.90
2022-10-23T01:17:25.295Z,26.60
2022-10-23T01:18:25.288Z,29.90
2022-10-23T01:19:25.281Z,27.60
2022-10-23T01:20:25.269Z,31.30
2022-10-23T01:21:25.235Z,28.50
2022-10-23T01:23:25.221Z,26.10
2022-10-23T01:24:25.208Z,26.60
2022-10-23T01:25:25.234Z,24.40
2022-10-23T01:26:25.182Z,27.00
2022-10-23T01:27:25.158Z,26.50
2022-10-23T01:28:25.203Z,29.30
2022-10-23T01:29:25.130Z,32.60
2022-10-23T01:30:25.119Z,35.00
2022-10-23T01:31:25.112Z,32.50
2022-10-23T01:32:25.089Z,32.00
2022-10-23T01:33:25.092Z,32.50
2022-10-23T01:34:25.203Z,34.10
2022-10-23T01:35:25.057Z,35.10
2022-10-23T01:36:25.039Z,35.50
2022-10-23T01:37:25.027Z,34.30
2022-10-23T01:38:25.024Z,34.90
2022-10-23T01:39:24.991Z,36.90
2022-10-23T01:40:25.037Z,34.40
2022-10-23T01:41:24.963Z,32.80
2022-10-23T01:42:24.969Z,33.70
2022-10-23T01:43:24.947Z,35.50
2022-10-23T01:44:24.924Z,34.40
2022-10-23T01:45:24.917Z,29.80
2022-10-23T01:46:24.956Z,29.50
2022-10-23T01:47:24.902Z,380.70
2022-10-23T01:48:24.890Z,790.50
2022-10-23T01:49:24.855Z,712.40
2022-10-23T01:50:24.849Z,691.60
2022-10-23T01:51:24.838Z,24.20
2022-10-23T01:52:24.935Z,22.00
2022-10-23T01:53:24.834Z,23.60
2022-10-23T01:54:24.799Z,25.40
2022-10-23T01:55:24.780Z,29.90
2022-10-23T01:56:24.779Z,27.00
2022-10-23T01:57:24.756Z,24.30
2022-10-23T01:58:24.864Z,29.00
2022-10-23T01:59:24.740Z,24.30
2022-10-23T02:00:24.698Z,30.10
2022-10-23T02:01:24.842Z,30.10
2022-10-23T02:02:24.781Z,31.80
2022-10-23T02:03:24.679Z,28.60
2022-10-23T02:04:24.703Z,29.20
2022-10-23T02:05:24.639Z,27.70
2022-10-23T02:06:24.619Z,28.50
2022-10-23T02:07:24.639Z,27.40
2022-10-23T02:08:24.614Z,29.90
2022-10-23T02:09:24.590Z,30.00
2022-10-23T02:10:24.704Z,29.10
2022-10-23T02:11:24.578Z,27.50
2022-10-23T02:12:24.665Z,34.30
2022-10-23T02:13:24.554Z,31.70
2022-10-23T02:14:24.539Z,32.10
2022-10-23T02:15:24.511Z,30.40
2022-10-23T02:16:24.528Z,29.90
2022-10-23T02:17:24.473Z,30.30
2022-10-23T02:18:24.464Z,30.60
2022-10-23T02:19:24.468Z,29.90
2022-10-23T02:20:24.433Z,31.10
2022-10-23T02:21:24.437Z,30.20
2022-10-23T02:22:24.555Z,29.90
2022-10-23T02:23:24.404Z,31.10
2022-10-23T02:24:24.382Z,31.50
2022-10-23T02:25:24.382Z,29.60
2022-10-23T02:26:24.369Z,30.70
2022-10-23T02:27:24.347Z,31.60
2022-10-23T02:28:24.383Z,30.40
2022-10-23T02:29:24.313Z,27.60
2022-10-23T02:30:24.295Z,28.50
2022-10-23T02:31:24.322Z,34.00
2022-10-23T02:32:24.286Z,31.70
2022-10-23T02:33:24.272Z,27.90
2022-10-23T02:34:24.288Z,29.00
2022-10-23T02:35:24.243Z,30.40
2022-10-23T02:36:24.222Z,30.80
2022-10-23T02:37:24.212Z,35.50
2022-10-23T02:38:24.189Z,36.10
2022-10-23T02:39:24.193Z,33.00
2022-10-23T02:40:24.303Z,29.60
2022-10-23T02:41:24.159Z,28.40
2022-10-23T02:42:24.130Z,31.40
2022-10-23T02:43:24.143Z,31.50
2022-10-23T02:44:24.100Z,30.30
2022-10-23T02:45:24.118Z,30.20
2022-10-23T02:46:24.124Z,32.70
2022-10-23T02:47:24.071Z,37.20
2022-10-23T02:48:24.070Z,33.50
2022-10-23T02:49:24.053Z,26.40
2022-10-23T02:50:24.022Z,27.90
2022-10-23T02:51:24.035Z,29.00
2022-10-23T02:52:24.024Z,32.30
2022-10-23T02:53:24.006Z,31.00
2022-10-23T02:54:23.985Z,29.60
2022-10-23T02:55:23.963Z,27.80
2022-10-23T02:56:23.973Z,27.10
2022-10-23T02:57:23.925Z,34.70
2022-10-23T02:58:24.031Z,26.00
2022-10-23T02:59:23.928Z,39.30
2022-10-23T03:00:23.890Z,42.70
2022-10-23T03:01:23.967Z,38.10
2022-10-23T03:02:23.985Z,36.90
2022-10-23T03:03:23.856Z,32.70
2022-10-23T03:04:23.960Z,331.50
2022-10-23T03:05:23.830Z,775.70
2022-10-23T03:06:23.809Z,734.90
2022-10-23T03:07:23.810Z,792.80
2022-10-23T03:08:23.776Z,26.50
2022-10-23T03:09:23.782Z,28.70
2022-10-23T03:10:23.882Z,30.70
2022-10-23T03:11:23.739Z,31.40
2022-10-23T03:12:23.730Z,33.10
2022-10-23T03:13:23.739Z,29.30
2022-10-23T03:14:23.715Z,27.00
2022-10-23T03:15:23.689Z,26.40
2022-10-23T03:16:23.803Z,30.60
2022-10-23T03:17:23.660Z,35.70
2022-10-23T03:18:23.643Z,36.50
2022-10-23T03:19:23.658Z,34.70
2022-10-23T03:20:23.613Z,33.70
2022-10-23T03:21:23.628Z,35.40
2022-10-23T03:22:23.632Z,35.00
2022-10-23T03:23:23.581Z,32.30
2022-10-23T03:24:23.591Z,32.60
2022-10-23T03:25:23.560Z,32.80
2022-10-23T03:26:23.533Z,34.70
2022-10-23T03:27:23.590Z,32.20
2022-10-23T03:28:23.555Z,34.30
2022-10-23T03:29:23.503Z,35.10
2022-10-23T03:30:23.483Z,35.30
2022-10-23T03:31:23.505Z,36.30
2022-10-23T03:32:23.456Z,34.20
2022-10-23T03:33:23.476Z,36.40
2022-10-23T03:34:23.567Z,36.70
2022-10-23T03:35:23.415Z,35.10
2022-10-23T03:36:23.424Z,37.50
2022-10-23T03:37:23.394Z,35.40
2022-10-23T03:38:23.378Z,33.10
2022-10-23T03:39:23.381Z,39.00
2022-10-23T03:40:23.379Z,34.00
2022-10-23T03:41:23.360Z,34.80
2022-10-23T03:42:23.339Z,35.70
2022-10-23T03:43:23.318Z,37.50
2022-10-23T03:44:23.296Z,34.10
2022-10-23T03:45:23.313Z,32.50
2022-10-23T03:46:23.401Z,32.00
2022-10-23T03:47:23.265Z,32.10
2022-10-23T03:48:23.260Z,30.70
2022-10-23T03:49:23.241Z,30.00
2022-10-23T03:50:23.226Z,33.10
2022-10-23T03:51:23.223Z,31.70
2022-10-23T03:53:23.216Z,41.80
2022-10-23T03:54:23.182Z,44.90
2022-10-23T03:55:23.160Z,43.90
2022-10-23T03:56:23.155Z,40.20
2022-10-23T03:57:23.141Z,34.30
2022-10-23T03:58:23.241Z,36.90
2022-10-23T03:59:23.114Z,36.10
2022-10-23T04:00:23.093Z,41.30
2022-10-23T04:01:23.149Z,44.00
2022-10-23T04:02:23.111Z,48.70
2022-10-23T04:03:23.052Z,58.60
2022-10-23T04:04:23.076Z,45.30
2022-10-23T04:05:23.035Z,33.50
2022-10-23T04:06:23.013Z,34.60
2022-10-23T04:07:23.021Z,36.20
2022-10-23T04:08:22.994Z,42.60
2022-10-23T04:09:22.987Z,35.50
2022-10-23T04:10:23.010Z,39.30
2022-10-23T04:11:22.957Z,36.60
2022-10-23T04:12:22.940Z,33.10
2022-10-23T04:13:22.932Z,33.30
2022-10-23T04:25:08.396Z,23.20
2022-10-23T05:25:37.885Z,23.80
2022-10-23T05:26:57.143Z,25.40
2022-10-23T05:29:38.381Z,739.20
2022-10-23T05:31:06.116Z,746.00
2022-10-23T05:33:25.244Z,33.80
2022-10-23T05:39:35.480Z,775.80
2022-10-23T05:40:18.699Z,833.10
2022-10-23T05:41:40.107Z,834.80
2022-10-23T05:49:11.120Z,27.50
2022-10-23T05:50:19.000Z,26.50
2022-10-23T05:51:14.089Z,39.40
2022-10-23T05:52:43.099Z,45.10
2022-10-23T05:53:19.733Z,39.20
2022-10-23T05:56:47.653Z,34.50
2022-10-23T05:57:52.894Z,34.70
2022-10-23T06:03:58.349Z,31.10
2022-10-23T06:05:06.680Z,32.60
2022-10-23T06:11:34.247Z,48.70
2022-10-23T06:38:51.877Z,38.00
2022-10-23T06:52:45.805Z,27.60
2022-10-23T06:53:07.322Z,27.80
2022-10-23T06:54:06.053Z,29.10
2022-10-23T06:55:06.294Z,27.50
2022-10-23T06:56:06.032Z,27.90
2022-10-23T06:57:06.715Z,27.00
2022-10-23T06:58:06.061Z,25.60
2022-10-23T06:59:05.984Z,26.10
2022-10-23T07:00:06.824Z,25.90
2022-10-23T07:01:20.392Z,25.20
2022-10-23T07:02:18.041Z,24.80
2022-10-23T07:03:05.937Z,24.70
2022-10-23T07:04:12.695Z,23.70
2022-10-23T07:05:08.729Z,24.60
2022-10-23T07:06:12.730Z,23.50
2022-10-23T07:07:06.151Z,25.10
2022-10-23T07:08:10.502Z,23.30
2022-10-23T07:09:06.675Z,23.20
2022-10-23T07:10:06.646Z,22.50
2022-10-23T07:11:05.796Z,22.10
2022-10-23T07:12:06.698Z,22.70
2022-10-23T07:13:06.085Z,21.90
2022-10-23T07:14:06.018Z,21.50
2022-10-23T07:15:06.044Z,20.40
2022-10-23T07:16:09.977Z,20.30
2022-10-23T07:17:10.931Z,19.90
2022-10-23T07:18:10.455Z,20.90
2022-10-23T07:19:05.925Z,20.70
2022-10-23T07:20:06.453Z,20.50
2022-10-23T07:21:06.432Z,20.00
2022-10-23T07:22:05.948Z,19.40
2022-10-23T07:23:06.393Z,19.90
2022-10-23T07:24:30.643Z,20.10
2022-10-23T07:25:06.405Z,20.40
2022-10-23T07:26:05.919Z,20.40
2022-10-23T07:27:06.084Z,20.00
2022-10-23T07:28:09.590Z,20.40
2022-10-23T07:29:16.821Z,20.20
2022-10-23T07:30:06.414Z,20.70
2022-10-23T07:31:09.812Z,21.20
2022-10-23T07:32:07.173Z,21.30
2022-10-23T07:33:15.713Z,21.60
2022-10-23T07:34:06.400Z,21.80
2022-10-23T07:35:06.489Z,23.60
2022-10-23T07:36:05.765Z,23.40
2022-10-23T07:37:05.433Z,22.90
2022-10-23T07:38:10.175Z,22.60
2022-10-23T07:39:06.705Z,22.10
2022-10-23T07:40:07.196Z,23.00
2022-10-23T07:41:08.891Z,22.60
2022-10-23T07:42:06.643Z,24.00
2022-10-23T07:43:06.391Z,22.50
2022-10-23T07:44:05.720Z,22.60
2022-10-23T07:45:06.309Z,23.00
2022-10-23T07:46:10.939Z,22.70
2022-10-23T07:47:07.550Z,22.40
2022-10-23T07:48:05.307Z,23.50
2022-10-23T07:49:15.407Z,23.20
2022-10-23T07:50:06.177Z,23.10
2022-10-23T07:51:05.239Z,23.30
2022-10-23T07:52:05.238Z,23.10
2022-10-23T07:53:05.257Z,23.80
2022-10-23T07:54:05.190Z,23.30
2022-10-23T07:55:05.197Z,23.60
2022-10-23T07:56:05.161Z,23.60
2022-10-23T07:57:05.141Z,23.30
2022-10-23T07:58:05.142Z,23.50
2022-10-23T07:59:05.233Z,23.80
2022-10-23T08:00:05.122Z,23.80
2022-10-23T08:01:05.149Z,25.10
2022-10-23T08:02:05.151Z,24.00
2022-10-23T08:03:05.068Z,23.20
2022-10-23T08:04:05.069Z,24.40
2022-10-23T08:05:05.203Z,23.60
2022-10-23T08:06:05.032Z,23.00
2022-10-23T08:07:05.016Z,22.20
2022-10-23T08:08:05.007Z,22.70
2022-10-23T08:09:06.614Z,22.70
2022-10-23T08:10:04.986Z,22.50
2022-10-23T08:11:05.056Z,22.90
2022-10-23T08:12:04.955Z,23.50
2022-10-23T08:13:04.938Z,23.00
2022-10-23T08:14:04.912Z,23.20
2022-10-23T08:15:04.903Z,21.90
2022-10-23T08:16:04.896Z,22.30
2022-10-23T08:17:05.414Z,22.60
2022-10-23T08:18:04.865Z,22.50
2022-10-23T08:19:04.863Z,21.90
2022-10-23T08:20:04.870Z,22.70
2022-10-23T08:21:04.834Z,21.60
2022-10-23T08:22:04.821Z,23.10
2022-10-23T08:23:04.897Z,21.30
2022-10-23T08:24:04.780Z,21.60
2022-10-23T08:25:04.771Z,21.40
2022-10-23T08:26:04.759Z,21.30
2022-10-23T08:27:04.750Z,21.00
2022-10-23T08:28:06.325Z,21.20
2022-10-23T08:29:04.840Z,20.60
2022-10-23T08:30:04.710Z,20.60
2022-10-23T08:31:04.687Z,21.50
2022-10-23T08:32:04.682Z,21.70
2022-10-23T08:33:04.663Z,22.20
2022-10-23T08:34:04.634Z,22.50
2022-10-23T08:35:04.744Z,21.90
2022-10-23T08:36:04.602Z,22.00
2022-10-23T08:37:04.591Z,22.70
2022-10-23T08:38:04.606Z,21.90
2022-10-23T08:39:04.562Z,20.30
2022-10-23T08:40:04.565Z,22.90
2022-10-23T08:41:04.577Z,22.70
2022-10-23T08:42:04.564Z,23.50
2022-10-23T08:43:04.525Z,23.60
2022-10-23T08:44:04.503Z,25.70
2022-10-23T08:45:04.482Z,28.00
2022-10-23T08:46:07.322Z,24.00
2022-10-23T08:47:04.584Z,26.20
2022-10-23T08:48:04.455Z,24.00
2022-10-23T08:49:04.425Z,27.70
2022-10-23T08:50:04.437Z,28.80
2022-10-23T08:51:04.399Z,29.30
2022-10-23T08:52:04.407Z,32.50
2022-10-23T08:53:04.410Z,28.80
2022-10-23T08:54:04.411Z,28.90
2022-10-23T08:55:04.367Z,31.10
2022-10-23T08:56:04.330Z,31.70
2022-10-23T08:57:04.310Z,30.10
2022-10-23T08:58:04.320Z,27.10
2022-10-23T08:59:04.420Z,26.20
2022-10-23T09:00:04.303Z,26.20
2022-10-23T09:01:04.342Z,26.30
2022-10-23T09:02:04.336Z,27.30
2022-10-23T09:03:04.268Z,25.30
2022-10-23T09:04:04.243Z,25.70
2022-10-23T09:05:04.353Z,27.00
2022-10-23T09:06:04.201Z,27.60
2022-10-23T09:07:04.238Z,26.90
2022-10-23T09:08:04.191Z,26.20
2022-10-23T09:09:04.172Z,25.60
2022-10-23T09:10:04.170Z,25.70
2022-10-23T09:11:04.242Z,22.90
2022-10-23T09:12:04.145Z,21.70
2022-10-23T09:13:04.107Z,22.50
2022-10-23T09:14:04.082Z,26.20
2022-10-23T09:15:04.088Z,32.30
2022-10-23T09:16:06.754Z,34.60
2022-10-23T09:17:05.534Z,33.20
2022-10-23T09:18:04.779Z,32.00
2022-10-23T09:19:05.228Z,32.90
2022-10-23T09:20:04.005Z,33.90
2022-10-23T09:21:03.986Z,31.60
2022-10-23T09:22:03.989Z,32.30
2022-10-23T09:23:03.987Z,34.00
2022-10-23T09:24:03.978Z,34.90
2022-10-23T09:25:03.947Z,31.00
2022-10-23T09:26:03.918Z,31.40
2022-10-23T09:28:05.608Z,31.60
2022-10-23T09:29:03.987Z,34.70
2022-10-23T09:30:03.882Z,29.80
2022-10-23T09:31:03.853Z,33.30
2022-10-23T09:32:03.853Z,32.60
2022-10-23T09:33:03.837Z,35.20
2022-10-23T09:34:04.324Z,31.30
2022-10-23T09:35:03.840Z,30.70
2022-10-23T09:36:03.793Z,30.80
2022-10-23T09:37:03.784Z,26.90
2022-10-23T09:38:03.757Z,31.00
2022-10-23T09:39:03.756Z,33.10
2022-10-23T09:40:03.724Z,37.20
2022-10-23T09:41:03.751Z,37.10
2022-10-23T09:42:03.713Z,35.70
2022-10-23T09:43:03.692Z,35.40
2022-10-23T09:44:03.690Z,34.10
2022-10-23T09:45:03.676Z,36.10
2022-10-23T09:46:03.642Z,24.60
2022-10-23T09:47:03.797Z,32.30
2022-10-23T09:48:03.614Z,23.30
2022-10-23T09:49:05.724Z,20.40
2022-10-23T09:50:03.606Z,19.50
2022-10-23T09:51:04.560Z,15.50
2022-10-23T09:52:03.564Z,21.20
2022-10-23T09:53:03.666Z,21.50
2022-10-23T09:54:03.549Z,23.30
2022-10-23T09:55:03.537Z,24.50
2022-10-23T09:56:03.520Z,19.40
2022-10-23T09:57:03.511Z,15.10
2022-10-23T09:58:03.497Z,9.40
2022-10-23T09:59:03.511Z,9.40
2022-10-23T10:00:03.448Z,10.80
2022-10-23T10:01:03.541Z,11.50
2022-10-23T10:02:03.505Z,12.70
2022-10-23T10:03:03.428Z,8.90
2022-10-23T10:04:03.411Z,9.80
2022-10-23T10:05:03.442Z,9.20
2022-10-23T10:06:03.371Z,10.30
2022-10-23T10:07:03.367Z,8.50
2022-10-23T10:08:03.355Z,8.50
2022-10-23T10:09:03.346Z,8.10
2022-10-23T10:10:03.311Z,8.20
2022-10-23T10:11:03.357Z,8.40
2022-10-23T10:12:03.292Z,8.30
2022-10-23T10:13:03.282Z,8.40
2022-10-23T10:14:03.278Z,7.30
2022-10-23T10:15:03.252Z,7.20
2022-10-23T10:16:03.247Z,8.00
2022-10-23T10:17:03.299Z,8.10
2022-10-23T10:18:03.207Z,7.40
2022-10-23T10:19:03.216Z,7.10
2022-10-23T10:20:06.668Z,7.20
2022-10-23T10:21:03.175Z,7.10
2022-10-23T10:22:03.180Z,6.80
2022-10-23T10:23:03.269Z,7.20
2022-10-23T10:24:03.956Z,7.20
2022-10-23T10:25:03.126Z,7.00
2022-10-23T10:26:03.120Z,7.40
2022-10-23T10:27:03.098Z,6.30
2022-10-23T10:28:03.100Z,6.90
2022-10-23T10:29:03.203Z,6.20
2022-10-23T10:30:03.061Z,6.30
2022-10-23T10:31:03.053Z,6.60
2022-10-23T10:32:03.020Z,6.60
2022-10-23T10:33:03.009Z,6.40
2022-10-23T10:34:03.282Z,6.80
2022-10-23T10:35:03.009Z,6.60
2022-10-23T10:36:03.014Z,6.40
2022-10-23T10:37:03.002Z,6.60
2022-10-23T10:38:02.950Z,6.10
2022-10-23T10:39:02.944Z,6.50
2022-10-23T10:40:02.916Z,6.70
2022-10-23T10:41:02.952Z,6.80
2022-10-23T10:42:02.896Z,7.10
2022-10-23T10:43:02.883Z,7.00
2022-10-23T10:44:02.867Z,6.50
2022-10-23T10:45:02.867Z,6.80
2022-10-23T10:46:02.854Z,6.20
2022-10-23T10:47:02.959Z,6.20
2022-10-23T10:48:02.814Z,6.90
2022-10-23T10:49:02.795Z,7.00
2022-10-23T10:50:02.837Z,6.50
2022-10-23T10:51:02.768Z,6.80
2022-10-23T10:52:02.771Z,6.10
2022-10-23T10:53:02.870Z,6.90
2022-10-23T10:54:02.726Z,6.20
2022-10-23T10:55:02.718Z,6.50
2022-10-23T10:56:02.744Z,6.30
2022-10-23T10:57:02.712Z,7.00
2022-10-23T10:58:02.689Z,6.30
2022-10-23T10:59:02.712Z,6.50
2022-10-23T11:00:02.650Z,6.60
2022-10-23T11:01:02.699Z,6.40
2022-10-23T11:02:02.733Z,6.00
2022-10-23T11:03:02.601Z,6.00
2022-10-23T11:04:02.609Z,5.70
2022-10-23T11:05:02.716Z,5.90
2022-10-23T11:06:02.575Z,5.90
2022-10-23T11:07:02.582Z,5.90
2022-10-23T11:08:02.531Z,5.70
2022-10-23T11:09:19.442Z,5.80
2022-10-23T11:10:03.630Z,6.00
2022-10-23T11:11:02.507Z,5.30
2022-10-23T11:12:02.510Z,5.90
2022-10-23T11:13:02.475Z,5.40
2022-10-23T11:14:02.461Z,5.10
2022-10-23T11:15:02.434Z,5.10
2022-10-23T11:16:02.549Z,5.60
2022-10-23T11:17:02.434Z,5.50
2022-10-23T11:18:02.397Z,5.20
2022-10-23T11:19:02.399Z,5.30
2022-10-23T11:20:02.384Z,5.00
2022-10-23T11:21:02.367Z,4.90
2022-10-23T11:22:02.483Z,5.30
2022-10-23T11:23:02.333Z,5.10
2022-10-23T11:24:02.354Z,5.10
2022-10-23T11:25:02.315Z,5.00
2022-10-23T11:26:02.279Z,5.10
2022-10-23T11:27:02.276Z,5.10
2022-10-23T11:28:04.492Z,5.00
2022-10-23T11:29:02.262Z,5.00
2022-10-23T11:30:02.221Z,4.50
2022-10-23T11:31:02.232Z,5.20
2022-10-23T11:32:02.200Z,4.50
2022-10-23T11:33:02.192Z,4.70
2022-10-23T11:34:02.294Z,4.80
2022-10-23T11:35:02.162Z,4.60
2022-10-23T11:36:02.156Z,4.60
2022-10-23T11:37:02.146Z,4.70
2022-10-23T11:38:02.115Z,4.80
2022-10-23T11:39:02.125Z,4.70
2022-10-23T11:40:02.203Z,4.30
2022-10-23T11:41:02.094Z,4.80
2022-10-23T11:42:02.080Z,4.40
2022-10-23T11:43:02.076Z,4.30
2022-10-23T11:44:02.048Z,4.50
2022-10-23T11:45:02.039Z,4.20
2022-10-23T11:46:02.126Z,4.10
2022-10-23T11:47:02.014Z,4.50
2022-10-23T11:48:01.977Z,4.30
2022-10-23T11:49:01.999Z,4.20
2022-10-23T11:50:01.969Z,4.10
2022-10-23T11:51:05.022Z,4.20
2022-10-23T11:52:02.070Z,4.40
2022-10-23T11:53:13.712Z,4.40
2022-10-23T11:54:02.900Z,5.00
2022-10-23T11:55:01.903Z,4.70
2022-10-23T11:56:01.871Z,4.20
2022-10-23T11:57:01.861Z,4.30
2022-10-23T11:58:01.875Z,4.10
2022-10-23T11:59:01.844Z,4.40
2022-10-23T12:00:01.811Z,4.40
2022-10-23T12:01:01.823Z,4.10
2022-10-23T12:02:01.824Z,4.10
2022-10-23T12:03:01.833Z,4.00
2022-10-23T12:04:01.797Z,4.50
2022-10-23T12:05:01.776Z,4.20
2022-10-23T12:06:01.736Z,4.20
2022-10-23T12:07:01.738Z,4.00
2022-10-23T12:08:01.706Z,4.00
2022-10-23T12:09:01.695Z,4.10
2022-10-23T12:10:01.800Z,4.30
2022-10-23T12:11:01.666Z,4.40
2022-10-23T12:12:01.660Z,4.20
2022-10-23T12:13:01.662Z,4.40
2022-10-23T12:14:01.628Z,4.30
2022-10-23T12:15:01.615Z,4.00
2022-10-23T12:16:01.738Z,4.20
2022-10-23T12:17:01.601Z,4.20
2022-10-23T12:18:01.568Z,3.90
2022-10-23T12:19:01.573Z,4.10
2022-10-23T12:20:01.619Z,4.10
2022-10-23T12:21:01.540Z,4.10
2022-10-23T12:22:01.648Z,4.10
2022-10-23T12:23:01.503Z,4.10
2022-10-23T12:24:01.503Z,4.00
2022-10-23T12:25:01.495Z,4.10
2022-10-23T12:26:01.461Z,4.10
2022-10-23T12:27:01.464Z,4.30
2022-10-23T12:28:01.462Z,3.80
2022-10-23T12:29:01.428Z,3.80
2022-10-23T12:30:01.416Z,4.00
2022-10-23T12:31:01.407Z,3.80
2022-10-23T12:32:01.383Z,4.00
2022-10-23T12:33:01.371Z,4.00
2022-10-23T12:34:01.487Z,4.00
2022-10-23T12:35:01.344Z,4.10
2022-10-23T12:36:01.339Z,4.10
2022-10-23T12:37:01.331Z,4.20
2022-10-23T12:38:01.296Z,3.80
2022-10-23T12:39:01.300Z,4.40
2022-10-23T12:40:01.388Z,4.10
2022-10-23T12:41:01.261Z,4.40
2022-10-23T12:42:01.259Z,3.80
2022-10-23T12:43:01.228Z,3.80
2022-10-23T12:44:01.236Z,3.90
2022-10-23T12:45:01.220Z,3.80
2022-10-23T12:46:01.209Z,4.10
2022-10-23T12:47:01.200Z,3.80
2022-10-23T12:48:01.160Z,3.60
2022-10-23T12:49:01.159Z,3.90
2022-10-23T12:50:01.145Z,3.90
2022-10-23T12:51:01.125Z,3.80
2022-10-23T12:52:01.155Z,3.90
2022-10-23T12:53:01.116Z,4.00
2022-10-23T12:54:01.081Z,3.40
2022-10-23T12:55:01.077Z,3.70
2022-10-23T12:57:01.043Z,3.70
2022-10-23T12:58:01.150Z,3.50
2022-10-23T12:59:01.003Z,3.60
2022-10-23T13:00:01.010Z,3.90
2022-10-23T13:01:01.100Z,3.60
2022-10-23T13:02:01.099Z,4.00
2022-10-23T13:03:00.967Z,3.60
2022-10-23T13:04:00.987Z,3.40
2022-10-23T13:06:12.033Z,3.60
2022-10-23T13:07:11.965Z,3.60
2022-10-23T13:08:11.946Z,3.50
2022-10-23T13:09:12.300Z,3.50
2022-10-23T13:10:11.922Z,3.70
2022-10-23T13:11:11.898Z,3.60
2022-10-23T13:12:15.746Z,3.50
2022-10-23T13:13:12.899Z,3.60
2022-10-23T13:14:11.866Z,3.60
2022-10-23T13:15:11.955Z,3.70
2022-10-23T13:16:11.858Z,3.70
2022-10-23T13:17:11.862Z,3.50
2022-10-23T13:18:11.816Z,3.70
2022-10-23T13:19:11.824Z,3.30
2022-10-23T13:20:11.790Z,3.60
2022-10-23T13:21:11.806Z,3.40
2022-10-23T13:22:11.765Z,3.70
2022-10-23T13:23:11.759Z,3.70
2022-10-23T13:24:11.750Z,3.60
2022-10-23T13:25:11.753Z,3.50
2022-10-23T13:26:11.732Z,3.30
2022-10-23T13:27:11.819Z,3.50
2022-10-23T13:28:11.671Z,3.60
2022-10-23T13:29:11.739Z,3.40
2022-10-23T13:30:11.779Z,4.00
2022-10-23T13:31:11.650Z,3.40
2022-10-23T13:32:11.646Z,3.40
2022-10-23T13:33:11.720Z,3.40
2022-10-23T13:34:11.624Z,3.60
2022-10-23T13:35:21.511Z,3.60
2022-10-23T13:36:12.584Z,3.60
2022-10-23T13:37:11.577Z,3.60
2022-10-23T13:38:11.538Z,3.50
2022-10-23T13:39:11.659Z,3.50
2022-10-23T13:40:11.532Z,3.70
2022-10-23T13:41:13.566Z,3.70
2022-10-23T13:42:12.239Z,3.70
2022-10-23T13:43:11.730Z,3.50
2022-10-23T13:44:12.351Z,3.50
2022-10-23T13:45:12.048Z,3.80
2022-10-23T13:46:15.443Z,3.60
2022-10-23T13:47:15.440Z,3.90
2022-10-23T13:48:12.671Z,3.60
2022-10-23T13:49:11.405Z,3.40
2022-10-23T13:50:11.392Z,3.40
2022-10-23T13:51:11.486Z,3.40
2022-10-23T13:52:11.386Z,3.60
2022-10-23T13:53:11.614Z,3.40
2022-10-23T13:54:11.334Z,3.30
2022-10-23T13:55:11.292Z,3.40
2022-10-23T13:56:11.287Z,3.50
2022-10-23T13:57:11.304Z,3.80
2022-10-23T13:58:11.275Z,3.20
2022-10-23T13:59:11.240Z,3.30
2022-10-23T14:00:11.229Z,3.40
2022-10-23T14:01:11.278Z,3.60
2022-10-23T14:02:11.260Z,3.40
2022-10-23T14:03:11.219Z,3.40
2022-10-23T14:04:11.192Z,3.40
2022-10-23T14:05:11.165Z,3.60
2022-10-23T14:06:11.164Z,3.60
2022-10-23T14:07:11.126Z,4.00
2022-10-23T14:08:11.292Z,3.80
2022-10-23T14:09:11.237Z,3.90
2022-10-23T14:10:11.088Z,3.80
2022-10-23T14:11:11.103Z,3.50
2022-10-23T14:12:11.083Z,3.70
2022-10-23T14:13:11.049Z,3.50
2022-10-23T14:14:11.028Z,3.50
2022-10-23T14:15:11.154Z,3.60
2022-10-23T14:16:11.038Z,3.40
2022-10-23T14:17:10.999Z,3.50
2022-10-23T14:18:10.991Z,3.60
2022-10-23T14:19:10.983Z,3.60
2022-10-23T14:20:10.971Z,3.40
2022-10-23T14:21:10.992Z,3.80
2022-10-23T14:22:10.921Z,3.50
2022-10-23T14:23:10.925Z,3.70
2022-10-23T14:24:10.916Z,3.90
2022-10-23T14:25:10.894Z,3.80
2022-10-23T14:26:10.877Z,3.80
2022-10-23T14:27:11.012Z,3.90
2022-10-23T14:28:10.835Z,3.80
2022-10-23T14:29:18.385Z,3.90
2022-10-23T14:30:11.837Z,3.90
2022-10-23T14:31:10.804Z,3.70
2022-10-23T14:32:10.796Z,3.80
2022-10-23T14:33:10.920Z,3.40
2022-10-23T14:34:10.763Z,3.60
2022-10-23T14:35:10.768Z,3.60
2022-10-23T14:36:10.799Z,3.50
2022-10-23T14:37:10.728Z,3.80
2022-10-23T14:38:10.733Z,3.60
2022-10-23T14:39:10.728Z,3.70
2022-10-23T14:40:10.688Z,3.70
2022-10-23T14:41:10.682Z,3.80
2022-10-23T14:42:10.651Z,3.90
2022-10-23T14:43:10.675Z,4.40
2022-10-23T14:44:10.646Z,3.90
2022-10-23T14:45:10.648Z,3.70
2022-10-23T14:46:10.600Z,3.80
2022-10-23T14:47:10.606Z,3.90
2022-10-23T14:48:10.584Z,3.70
2022-10-23T14:49:10.588Z,3.70
2022-10-23T14:50:10.604Z,3.70
2022-10-23T14:51:10.694Z,3.60
2022-10-23T14:52:10.556Z,3.50
2022-10-23T14:53:10.543Z,3.90
2022-10-23T14:54:10.496Z,3.60
2022-10-23T14:55:10.519Z,3.50
2022-10-23T14:56:10.491Z,3.70
2022-10-23T14:57:10.496Z,3.70
2022-10-23T14:58:10.461Z,3.50
2022-10-23T14:59:10.443Z,3.40
2022-10-23T15:00:10.426Z,3.40
2022-10-23T15:01:10.561Z,3.70
2022-10-23T15:02:10.431Z,3.50
2022-10-23T15:03:10.515Z,3.60
2022-10-23T15:04:10.371Z,3.80
2022-10-23T15:05:10.372Z,3.80
2022-10-23T15:06:11.812Z,4.20
2022-10-23T15:07:10.354Z,3.60
2022-10-23T15:08:10.323Z,3.90
2022-10-23T15:09:10.320Z,3.80
2022-10-23T15:10:10.366Z,3.60
2022-10-23T15:11:12.550Z,3.70
2022-10-23T15:12:10.276Z,3.60
2022-10-23T15:13:10.264Z,3.40
2022-10-23T15:14:10.223Z,3.60
2022-10-23T15:15:10.268Z,3.90
2022-10-23T15:16:10.226Z,3.70
2022-10-23T15:17:15.411Z,3.60
2022-10-23T15:18:11.186Z,3.60
2022-10-23T15:19:13.471Z,3.70
2022-10-23T15:20:11.295Z,3.70
2022-10-23T15:21:10.157Z,4.30
2022-10-23T15:22:10.114Z,3.80
2022-10-23T15:23:10.167Z,4.00
2022-10-23T15:24:10.111Z,3.90
2022-10-23T15:25:12.205Z,3.60